Date,TemperatureHighF,TemperatureAvgF,TemperatureLowF,DewpointHighF,DewpointAvgF,DewpointLowF,HumidityHigh,HumidityAvg,HumidityLow,PressureMaxIn,PressureMinIn,WindSpeedMaxMPH,WindSpeedAvgMPH,GustSpeedMaxMPH,PrecipitationSumIn
2013-2-1,59.0,48.6,0.0,51.7,42.6,0.0,77,63,77,30.49,28.78,17,14,17,0.19
2013-2-2,69.4,34.6,26.4,63.1,13.1,-5.2,95,45,25,29.92,29.80,11,3,11,0.00
2013-2-3,28.4,24.7,17.1,15.3,10.8,6.0,76,57,42,29.85,29.50,14,4,14,0.00
2013-2-4,30.0,24.8,20.5,11.5,0.8,-8.8,61,39,23,29.70,29.49,27,10,27,0.00
2013-2-5,30.0,20.2,9.5,7.9,-1.2,-10.7,56,41,26,29.85,29.69,19,3,23,0.00
2013-2-6,38.5,27.7,20.5,22.5,11.5,-11.6,74,54,24,30.11,29.73,27,6,27,0.01
2013-2-7,26.1,21.7,15.1,-9.1,-11.5,-16.2,29,24,22,30.34,30.10,21,5,21,0.00
2013-2-8,25.9,19.3,14.2,11.3,3.0,-10.0,74,57,22,30.29,29.22,29,7,29,0.00
2013-2-9,23.2,17.7,13.6,16.2,8.9,1.3,80,68,51,29.67,29.10,39,14,39,0.01
2013-2-10,40.5,20.7,3.7,10.2,1.5,-7.6,61,46,22,29.89,29.67,14,3,14,0.00
2013-2-11,38.1,25.7,12.4,34.9,18.5,2.2,88,74,58,29.85,29.09,10,1,10,0.17
2013-2-12,45.9,38.4,32.5,32.2,27.8,23.1,88,68,44,29.34,29.05,24,6,24,0.00
2013-2-13,45.1,34.3,26.4,23.5,19.7,15.6,68,56,41,29.36,29.22,17,3,17,0.00
2013-2-14,44.8,33.9,25.2,21.8,19.1,14.8,73,57,39,29.49,29.19,14,3,14,0.00
2013-2-15,53.6,35.1,20.5,31.9,24.7,14.8,84,68,41,29.49,29.38,11,2,11,0.00
2013-2-16,42.3,35.1,28.9,31.1,23.5,10.4,83,65,44,29.45,29.22,14,4,14,0.00
2013-2-17,30.9,22.0,16.2,15.3,4.2,-7.9,77,50,27,29.23,28.80,40,16,40,0.01
2013-2-18,32.4,22.3,13.8,-2.6,-6.4,-10.8,42,30,21,29.61,29.08,39,16,39,0.04
2013-2-19,42.8,33.3,20.3,37.8,13.9,-9.5,89,50,25,29.64,29.05,13,4,13,0.24
2013-2-20,39.2,33.5,26.8,36.3,19.3,8.2,90,58,40,29.23,28.97,27,10,27,0.01
2013-2-21,30.0,26.3,22.6,11.0,6.5,-0.2,53,44,31,29.68,29.21,27,11,27,0.00
2013-2-22,43.5,30.3,17.2,22.4,15.6,6.6,73,56,35,29.90,29.67,15,3,15,0.00
2013-2-23,41.4,34.1,28.6,30.9,26.7,21.0,85,75,63,29.85,29.47,9,2,9,0.08
2013-2-24,36.3,33.3,29.7,32.5,29.8,26.6,88,87,85,29.47,29.23,13,2,13,0.12
2013-2-25,41.7,32.3,24.6,34.6,27.6,20.4,88,83,67,29.75,29.40,8,1,8,0.05
2013-2-26,42.6,34.6,27.9,37.3,28.9,23.1,90,80,66,29.86,29.71,10,2,10,0.01
2013-2-27,41.4,36.8,32.7,36.2,32.1,26.6,88,83,69,29.71,29.07,29,8,29,0.85
2013-2-28,48.9,38.3,33.1,39.0,33.0,29.1,93,82,61,29.12,29.03,15,4,15,0.08